createdAt,value
2019-06-27T00:00:41.061Z,23.33
2019-06-27T00:03:09.517Z,23.33
2019-06-27T00:05:37.972Z,23.36
2019-06-27T00:08:06.400Z,23.28
2019-06-27T00:10:34.889Z,23.11
2019-06-27T00:13:03.566Z,22.92
2019-06-27T00:15:32.027Z,22.95
2019-06-27T00:18:00.482Z,22.92
2019-06-27T00:20:28.924Z,22.90
2019-06-27T00:22:57.370Z,22.60
2019-06-27T00:25:25.825Z,22.43
2019-06-27T00:27:54.268Z,22.23
2019-06-27T00:30:22.724Z,22.21
2019-06-27T00:32:51.198Z,22.04
2019-06-27T00:35:19.673Z,21.86
2019-06-27T00:37:48.128Z,21.93
2019-06-27T00:40:16.616Z,21.78
2019-06-27T00:42:45.158Z,21.82
2019-06-27T00:45:14.169Z,21.64
2019-06-27T00:47:42.608Z,21.50
2019-06-27T00:50:11.621Z,21.29
2019-06-27T00:52:40.099Z,21.40
2019-06-27T00:55:08.942Z,21.22
2019-06-27T00:57:37.426Z,21.12
2019-06-27T01:00:09.426Z,21.16
2019-06-27T01:02:37.916Z,20.91
2019-06-27T01:05:07.713Z,20.74
2019-06-27T01:07:36.224Z,20.73
2019-06-27T01:10:07.029Z,20.57
2019-06-27T01:12:35.636Z,20.45
2019-06-27T01:15:05.645Z,20.54
2019-06-27T01:17:34.084Z,20.50
2019-06-27T01:20:02.553Z,20.42
2019-06-27T01:22:31.085Z,20.10
2019-06-27T01:24:59.543Z,20.09
2019-06-27T01:27:30.252Z,20.25
2019-06-27T01:29:58.197Z,20.08
2019-06-27T01:32:26.639Z,20.18
2019-06-27T01:34:55.088Z,20.10
2019-06-27T01:37:23.522Z,19.86
2019-06-27T01:39:52.006Z,19.86
2019-06-27T01:42:20.493Z,19.87
2019-06-27T01:44:53.355Z,19.86
2019-06-27T01:47:21.811Z,19.85
2019-06-27T01:49:50.281Z,19.94
2019-06-27T01:52:18.728Z,19.87
2019-06-27T01:54:47.204Z,19.73
2019-06-27T01:57:15.650Z,19.69
2019-06-27T01:59:44.090Z,19.64
2019-06-27T02:02:12.554Z,19.53
2019-06-27T02:04:41.022Z,19.39
2019-06-27T02:07:09.468Z,19.35
2019-06-27T02:09:38.015Z,19.39
2019-06-27T02:12:06.473Z,19.42
2019-06-27T02:14:34.923Z,19.38
2019-06-27T02:17:03.389Z,19.59
2019-06-27T02:19:31.831Z,19.30
2019-06-27T02:22:00.305Z,19.41
2019-06-27T02:24:28.774Z,19.49
2019-06-27T02:26:57.236Z,19.58
2019-06-27T02:29:25.660Z,19.33
2019-06-27T02:31:54.147Z,19.12
2019-06-27T02:34:22.567Z,19.27
2019-06-27T02:36:51.028Z,19.20
2019-06-27T02:39:19.482Z,19.16
2019-06-27T02:41:47.953Z,19.21
2019-06-27T02:44:16.401Z,19.20
2019-06-27T02:46:44.845Z,18.96
2019-06-27T02:49:13.341Z,18.79
2019-06-27T02:51:41.823Z,18.76
2019-06-27T02:54:10.285Z,18.74
2019-06-27T02:56:38.767Z,18.59
2019-06-27T02:59:07.214Z,18.54
2019-06-27T03:01:35.677Z,18.31
2019-06-27T03:04:04.141Z,18.45
2019-06-27T03:06:32.625Z,18.80
2019-06-27T03:09:01.081Z,19.00
2019-06-27T03:11:29.515Z,19.05
2019-06-27T03:13:57.951Z,18.83
2019-06-27T03:16:26.400Z,18.84
2019-06-27T03:18:54.831Z,18.60
2019-06-27T03:21:23.267Z,18.52
2019-06-27T03:23:51.775Z,18.44
2019-06-27T03:26:20.207Z,18.40
2019-06-27T03:28:52.616Z,18.40
2019-06-27T03:31:18.857Z,18.50
2019-06-27T03:33:47.269Z,18.36
2019-06-27T03:36:16.065Z,18.33
2019-06-27T03:38:44.558Z,18.58
2019-06-27T03:41:12.994Z,18.65
2019-06-27T03:43:41.466Z,18.68
2019-06-27T03:46:09.909Z,18.65
2019-06-27T03:48:38.510Z,18.45
2019-06-27T03:51:06.967Z,18.43
2019-06-27T03:53:35.411Z,18.23
2019-06-27T03:56:03.891Z,18.27
2019-06-27T03:58:32.374Z,18.32
2019-06-27T04:01:00.787Z,18.32
2019-06-27T04:03:29.223Z,18.34
2019-06-27T04:05:57.690Z,18.35
2019-06-27T04:08:26.130Z,18.32
2019-06-27T04:10:54.666Z,17.94
2019-06-27T04:13:23.125Z,17.84
2019-06-27T04:15:51.591Z,17.70
2019-06-27T04:18:20.031Z,17.69
2019-06-27T04:20:48.494Z,17.88
2019-06-27T04:23:16.948Z,17.79
2019-06-27T04:25:45.421Z,17.79
2019-06-27T04:28:13.894Z,17.64
2019-06-27T04:30:42.712Z,17.50
2019-06-27T04:33:11.147Z,17.58
2019-06-27T04:35:39.606Z,17.74
2019-06-27T04:38:08.061Z,17.73
2019-06-27T04:40:36.534Z,17.92
2019-06-27T04:43:06.245Z,17.96
2019-06-27T04:45:34.857Z,17.58
2019-06-27T04:48:03.343Z,17.43
2019-06-27T04:50:31.777Z,17.50
2019-06-27T04:53:00.227Z,17.58
2019-06-27T04:55:28.687Z,17.64
2019-06-27T04:57:57.147Z,17.66
2019-06-27T05:00:31.665Z,17.40
2019-06-27T05:03:00.119Z,17.37
2019-06-27T05:05:28.582Z,17.57
2019-06-27T05:07:57.042Z,17.58
2019-06-27T05:10:25.525Z,17.63
2019-06-27T05:12:53.960Z,17.94
2019-06-27T05:15:22.435Z,18.23
2019-06-27T05:17:50.884Z,18.25
2019-06-27T05:20:19.346Z,17.99
2019-06-27T05:22:47.855Z,18.01
2019-06-27T05:25:16.309Z,17.87
2019-06-27T05:27:44.780Z,18.12
2019-06-27T05:30:13.243Z,18.45
2019-06-27T05:32:41.727Z,18.43
2019-06-27T05:35:10.349Z,18.87
2019-06-27T05:37:38.786Z,19.03
2019-06-27T05:40:08.192Z,18.92
2019-06-27T05:42:36.668Z,18.80
2019-06-27T05:45:08.246Z,19.05
2019-06-27T05:47:37.010Z,18.98
2019-06-27T05:50:07.022Z,18.90
2019-06-27T05:52:35.466Z,18.93
2019-06-27T05:55:04.954Z,19.02
2019-06-27T05:57:33.436Z,19.26
2019-06-27T06:00:02.023Z,19.39
2019-06-27T06:02:30.554Z,19.42
2019-06-27T06:04:59.014Z,19.23
2019-06-27T06:07:27.485Z,18.89
2019-06-27T06:09:55.981Z,18.62
2019-06-27T06:12:24.458Z,18.65
2019-06-27T06:14:52.921Z,19.08
2019-06-27T06:17:21.345Z,19.28
2019-06-27T06:19:49.921Z,18.77
2019-06-27T06:22:18.362Z,19.05
2019-06-27T06:24:46.783Z,19.49
2019-06-27T06:27:15.261Z,19.58
2019-06-27T06:29:43.711Z,19.59
2019-06-27T06:32:12.180Z,19.29
2019-06-27T06:34:40.663Z,19.25
2019-06-27T06:37:09.109Z,19.38
2019-06-27T06:39:37.561Z,19.55
2019-06-27T06:42:06.024Z,19.01
2019-06-27T06:44:34.486Z,19.19
2019-06-27T06:47:02.938Z,18.44
2019-06-27T06:49:31.390Z,18.34
2019-06-27T06:51:59.845Z,18.60
2019-06-27T06:54:28.447Z,18.58
2019-06-27T06:56:56.826Z,18.39
2019-06-27T06:59:25.304Z,18.80
2019-06-27T07:01:53.762Z,18.60
2019-06-27T07:04:22.207Z,18.66
2019-06-27T07:06:50.691Z,18.62
2019-06-27T07:09:19.151Z,19.13
2019-06-27T07:11:47.606Z,19.19
2019-06-27T07:14:16.072Z,19.18
2019-06-27T07:16:44.529Z,19.10
2019-06-27T07:19:12.999Z,19.03
2019-06-27T07:21:41.462Z,19.01
2019-06-27T07:24:09.906Z,19.31
2019-06-27T07:26:38.387Z,19.44
2019-06-27T07:29:06.863Z,19.46
2019-06-27T07:31:35.333Z,19.69
2019-06-27T07:34:03.793Z,20.05
2019-06-27T07:36:32.251Z,20.10
2019-06-27T07:39:00.695Z,19.87
2019-06-27T07:41:29.157Z,20.11
2019-06-27T07:43:57.632Z,20.13
2019-06-27T07:46:26.214Z,19.50
2019-06-27T07:48:54.702Z,19.60
2019-06-27T07:51:23.162Z,19.84
2019-06-27T07:53:51.618Z,19.51
2019-06-27T07:56:20.121Z,19.40
2019-06-27T07:58:48.554Z,19.50
2019-06-27T08:08:50.688Z,19.95
2019-06-27T08:11:19.106Z,20.15
2019-06-27T08:13:47.573Z,19.95
2019-06-27T08:16:16.051Z,20.13
2019-06-27T08:18:44.511Z,20.10
2019-06-27T08:21:12.970Z,20.28
2019-06-27T08:23:42.203Z,20.07
2019-06-27T08:26:10.818Z,20.08
2019-06-27T08:28:39.309Z,19.68
2019-06-27T08:31:07.759Z,19.74
2019-06-27T08:33:36.299Z,19.77
2019-06-27T08:36:04.735Z,20.05
2019-06-27T08:38:33.216Z,20.35
2019-06-27T08:41:01.699Z,20.56
2019-06-27T08:43:30.210Z,20.65
2019-06-27T08:45:58.677Z,20.52
2019-06-27T08:48:27.144Z,20.52
2019-06-27T08:50:55.674Z,20.39
2019-06-27T08:53:24.152Z,20.59
2019-06-27T08:55:52.856Z,20.70
2019-06-27T08:58:21.369Z,20.83
2019-06-27T09:00:49.848Z,21.12
2019-06-27T09:03:18.323Z,20.94
2019-06-27T09:05:46.820Z,20.84
2019-06-27T09:08:15.355Z,20.57
2019-06-27T09:10:44.032Z,20.93
2019-06-27T09:13:12.567Z,21.02
2019-06-27T09:15:41.014Z,21.38
2019-06-27T09:18:09.487Z,21.13
2019-06-27T09:20:37.940Z,20.71
2019-06-27T09:23:06.411Z,20.70
2019-06-27T09:25:34.892Z,21.07
2019-06-27T09:28:03.399Z,21.31
2019-06-27T09:30:31.889Z,21.75
2019-06-27T09:33:00.352Z,21.51
2019-06-27T09:35:28.792Z,21.72
2019-06-27T09:37:57.351Z,21.56
2019-06-27T09:40:25.972Z,21.85
2019-06-27T09:42:54.468Z,21.71
2019-06-27T09:45:23.127Z,21.60
2019-06-27T09:47:51.551Z,21.57
2019-06-27T09:50:21.827Z,21.37
2019-06-27T09:52:50.294Z,21.67
2019-06-27T09:55:19.014Z,21.84
2019-06-27T09:57:47.524Z,22.11
2019-06-27T10:00:17.777Z,21.92
2019-06-27T10:02:46.272Z,21.80
2019-06-27T10:05:16.454Z,21.91
2019-06-27T10:07:44.926Z,21.94
2019-06-27T10:10:14.628Z,22.16
2019-06-27T10:12:43.440Z,22.19
2019-06-27T10:15:12.256Z,22.25
2019-06-27T10:17:40.711Z,22.40
2019-06-27T10:20:10.137Z,22.50
2019-06-27T10:22:38.597Z,22.38
2019-06-27T10:25:07.875Z,22.19
2019-06-27T10:27:36.381Z,21.80
2019-06-27T10:30:06.912Z,22.14
2019-06-27T10:32:35.405Z,22.16
2019-06-27T10:35:04.709Z,22.05
2019-06-27T10:37:33.194Z,22.29
2019-06-27T10:40:01.735Z,22.38
2019-06-27T10:42:30.196Z,22.67
2019-06-27T10:44:58.634Z,22.43
2019-06-27T10:47:27.087Z,22.35
2019-06-27T10:49:55.532Z,22.40
2019-06-27T10:52:24.019Z,22.58
2019-06-27T10:54:52.491Z,22.65
2019-06-27T10:57:20.936Z,22.60
2019-06-27T10:59:49.406Z,22.82
2019-06-27T11:02:17.835Z,22.84
2019-06-27T11:04:46.313Z,22.94
2019-06-27T11:07:14.838Z,22.92
2019-06-27T11:09:43.270Z,22.97
2019-06-27T11:12:11.743Z,22.98
2019-06-27T11:14:40.175Z,23.15
2019-06-27T11:17:08.621Z,23.10
2019-06-27T11:19:51.532Z,23.25
2019-06-27T11:22:07.289Z,23.30
2019-06-27T11:24:35.735Z,23.18
2019-06-27T11:27:04.256Z,23.18
2019-06-27T11:29:32.765Z,23.00
2019-06-27T11:32:01.212Z,23.26
2019-06-27T11:34:29.692Z,23.42
2019-06-27T11:36:58.145Z,23.28
2019-06-27T11:39:26.669Z,23.15
2019-06-27T11:41:55.112Z,23.11
2019-06-27T11:44:23.563Z,23.35
2019-06-27T11:46:52.068Z,23.10
2019-06-27T11:49:20.531Z,23.11
2019-06-27T11:51:49.189Z,23.02
2019-06-27T11:54:17.630Z,23.07
2019-06-27T11:56:46.211Z,23.18
2019-06-27T11:59:14.673Z,23.33
2019-06-27T12:01:46.071Z,23.44
2019-06-27T12:04:14.496Z,23.45
2019-06-27T12:06:42.966Z,23.52
2019-06-27T12:09:11.466Z,23.57
2019-06-27T12:11:42.301Z,23.44
2019-06-27T12:14:10.754Z,23.47
2019-06-27T12:16:39.202Z,23.53
2019-06-27T12:19:07.645Z,23.83
2019-06-27T12:21:36.125Z,23.68
2019-06-27T12:24:04.556Z,23.92
2019-06-27T12:26:33.010Z,24.02
2019-06-27T12:29:01.472Z,23.87
2019-06-27T12:31:29.926Z,23.87
2019-06-27T12:34:07.017Z,24.02
2019-06-27T12:36:28.562Z,24.19
2019-06-27T12:38:57.010Z,24.35
2019-06-27T12:41:25.450Z,24.60
2019-06-27T12:43:53.952Z,24.78
2019-06-27T12:46:23.369Z,24.71
2019-06-27T12:48:51.807Z,24.46
2019-06-27T12:51:20.454Z,24.32
2019-06-27T12:53:48.902Z,24.26
2019-06-27T12:56:17.334Z,23.93
2019-06-27T12:58:45.812Z,24.28
2019-06-27T13:01:14.319Z,24.23
2019-06-27T13:03:42.810Z,24.19
2019-06-27T13:06:11.328Z,24.45
2019-06-27T13:08:39.741Z,24.61
2019-06-27T13:11:08.192Z,24.65
2019-06-27T13:13:36.677Z,24.93
2019-06-27T13:16:05.161Z,25.07
2019-06-27T13:18:33.628Z,25.06
2019-06-27T13:21:02.164Z,25.10
2019-06-27T13:23:30.634Z,25.00
2019-06-27T13:25:59.187Z,25.08
2019-06-27T13:28:27.623Z,25.08
2019-06-27T13:30:56.085Z,25.27
2019-06-27T13:33:24.524Z,25.29
2019-06-27T13:35:53.091Z,25.15
2019-06-27T13:38:21.535Z,25.21
2019-06-27T13:40:49.977Z,25.42
2019-06-27T13:43:18.451Z,25.25
2019-06-27T13:45:46.895Z,25.40
2019-06-27T13:48:15.353Z,25.52
2019-06-27T13:50:43.877Z,25.62
2019-06-27T13:53:12.332Z,25.66
2019-06-27T13:55:40.805Z,25.55
2019-06-27T13:58:09.321Z,25.67
2019-06-27T14:00:43.090Z,25.74
2019-06-27T14:03:11.543Z,25.85
2019-06-27T14:05:40.008Z,25.71
2019-06-27T14:08:08.850Z,25.81
2019-06-27T14:10:37.584Z,25.90
2019-06-27T14:13:06.116Z,26.15
2019-06-27T14:15:34.686Z,25.82
2019-06-27T14:18:03.162Z,25.93
2019-06-27T14:20:31.617Z,26.13
2019-06-27T14:23:00.089Z,26.03
2019-06-27T14:25:28.583Z,25.60
2019-06-27T14:27:57.060Z,25.67
2019-06-27T14:30:26.077Z,25.69
2019-06-27T14:32:54.521Z,25.57
2019-06-27T14:35:23.300Z,25.80
2019-06-27T14:37:51.790Z,25.83
2019-06-27T14:40:20.969Z,26.03
2019-06-27T14:42:49.360Z,26.29
2019-06-27T14:45:18.093Z,26.39
2019-06-27T14:47:46.533Z,26.44
2019-06-27T14:50:14.991Z,26.50
2019-06-27T14:52:43.435Z,26.56
2019-06-27T14:55:12.518Z,26.23
2019-06-27T14:57:41.049Z,26.44
2019-06-27T15:00:10.116Z,26.42
2019-06-27T15:02:38.844Z,26.66
2019-06-27T15:05:08.021Z,26.62
2019-06-27T15:07:36.481Z,26.65
2019-06-27T15:10:06.790Z,26.55
2019-06-27T15:12:35.959Z,26.47
2019-06-27T15:15:06.363Z,26.15
2019-06-27T15:17:34.820Z,26.08
2019-06-27T15:20:04.454Z,26.53
2019-06-27T15:22:32.953Z,26.66
2019-06-27T15:25:01.465Z,26.84
2019-06-27T15:27:29.912Z,27.18
2019-06-27T15:29:58.416Z,27.41
2019-06-27T15:32:26.853Z,27.36
2019-06-27T15:34:55.323Z,27.69
2019-06-27T15:37:23.847Z,28.03
2019-06-27T15:39:52.303Z,28.14
2019-06-27T15:42:20.761Z,28.06
2019-06-27T15:44:50.779Z,28.04
2019-06-27T15:47:19.301Z,28.36
2019-06-27T15:49:47.760Z,28.00
2019-06-27T15:52:16.216Z,28.28
2019-06-27T15:54:44.677Z,28.20
2019-06-27T15:57:13.151Z,28.37
2019-06-27T15:59:41.603Z,28.86
2019-06-27T16:02:10.058Z,28.69
2019-06-27T16:04:38.502Z,28.95
2019-06-27T16:07:07.203Z,29.09
2019-06-27T16:09:35.712Z,29.21
2019-06-27T16:12:04.179Z,29.69
2019-06-27T16:14:32.598Z,29.43
2019-06-27T16:17:01.054Z,29.43
2019-06-27T16:19:29.551Z,28.97
2019-06-27T16:21:58.003Z,29.26
2019-06-27T16:24:26.441Z,29.14
2019-06-27T16:26:54.918Z,29.65
2019-06-27T16:29:23.374Z,29.21
2019-06-27T16:31:51.846Z,29.94
2019-06-27T16:34:20.299Z,29.71
2019-06-27T16:36:48.771Z,29.20
2019-06-27T16:39:17.208Z,29.18
2019-06-27T16:41:45.680Z,28.89
2019-06-27T16:44:14.119Z,29.45
2019-06-27T16:46:42.582Z,29.89
2019-06-27T16:49:11.041Z,29.07
2019-06-27T16:51:39.505Z,29.26
2019-06-27T16:54:07.993Z,29.80
2019-06-27T16:56:36.458Z,29.95
2019-06-27T16:59:04.983Z,29.81
2019-06-27T17:01:33.442Z,30.04
2019-06-27T17:04:01.901Z,30.10
2019-06-27T17:06:41.344Z,29.88
2019-06-27T17:09:00.595Z,29.87
2019-06-27T17:11:29.294Z,28.88
2019-06-27T17:13:57.759Z,27.99
2019-06-27T17:16:26.189Z,27.12
2019-06-27T17:18:54.648Z,26.71
2019-06-27T17:21:23.136Z,26.56
2019-06-27T17:23:51.635Z,26.33
2019-06-27T17:26:20.083Z,26.14
2019-06-27T17:28:48.533Z,26.03
2019-06-27T17:31:17.013Z,25.93
2019-06-27T17:33:45.466Z,26.00
2019-06-27T17:36:13.933Z,25.79
2019-06-27T17:38:42.407Z,25.69
2019-06-27T17:41:10.874Z,25.63
2019-06-27T17:43:41.448Z,25.67
2019-06-27T17:46:09.880Z,25.26
2019-06-27T17:48:38.327Z,25.22
2019-06-27T17:51:07.941Z,25.32
2019-06-27T17:53:36.739Z,25.22
2019-06-27T17:56:05.243Z,25.17
2019-06-27T17:58:33.703Z,25.10
2019-06-27T18:01:02.244Z,25.03
2019-06-27T18:03:30.767Z,24.96
2019-06-27T18:05:59.196Z,24.74
2019-06-27T18:08:27.676Z,24.66
2019-06-27T18:10:56.135Z,24.62
2019-06-27T18:13:24.625Z,24.53
2019-06-27T18:15:53.091Z,24.49
2019-06-27T18:18:21.587Z,24.44
2019-06-27T18:20:50.065Z,24.40
2019-06-27T18:23:18.573Z,24.44
2019-06-27T18:25:47.041Z,24.37
2019-06-27T18:28:15.504Z,24.36
2019-06-27T18:30:43.987Z,24.28
2019-06-27T18:33:12.440Z,24.08
2019-06-27T18:35:40.925Z,24.09
2019-06-27T18:38:09.406Z,24.01
2019-06-27T18:40:37.853Z,24.03
2019-06-27T18:43:06.308Z,23.73
2019-06-27T18:45:34.779Z,23.79
2019-06-27T18:48:03.228Z,23.88
2019-06-27T18:50:31.881Z,23.67
2019-06-27T18:53:00.370Z,23.66
2019-06-27T18:55:28.810Z,23.70
2019-06-27T18:57:57.424Z,23.56
2019-06-27T19:00:25.937Z,23.48
2019-06-27T19:02:54.411Z,23.34
2019-06-27T19:05:22.899Z,23.22
2019-06-27T19:07:51.415Z,23.13
2019-06-27T19:10:20.214Z,23.30
2019-06-27T19:12:48.666Z,23.13
2019-06-27T19:15:17.467Z,23.10
2019-06-27T19:17:46.000Z,23.09
2019-06-27T19:20:25.398Z,23.01
2019-06-27T19:22:55.553Z,22.79
2019-06-27T19:25:25.590Z,22.76
2019-06-27T19:27:54.042Z,22.61
2019-06-27T19:30:22.503Z,22.54
2019-06-27T19:32:50.946Z,22.56
2019-06-27T19:35:19.416Z,22.55
2019-06-27T19:38:00.886Z,22.37
2019-06-27T19:40:18.578Z,22.38
2019-06-27T19:42:47.042Z,22.22
2019-06-27T19:45:15.626Z,22.22
2019-06-27T19:47:44.118Z,22.19
2019-06-27T19:50:13.136Z,22.22
2019-06-27T19:52:41.587Z,22.07
2019-06-27T19:55:10.394Z,21.99
2019-06-27T19:57:38.890Z,22.02
2019-06-27T20:00:07.958Z,22.05
2019-06-27T20:02:36.423Z,21.96
2019-06-27T20:05:06.015Z,21.87
2019-06-27T20:07:34.490Z,21.92
2019-06-27T20:10:03.183Z,21.81
2019-06-27T20:12:31.631Z,21.82
2019-06-27T20:15:00.145Z,21.81
2019-06-27T20:17:28.577Z,21.66
2019-06-27T20:19:57.033Z,21.56
2019-06-27T20:22:25.521Z,21.53
2019-06-27T20:24:54.351Z,21.44
2019-06-27T20:27:22.793Z,21.46
2019-06-27T20:29:51.403Z,21.31
2019-06-27T20:32:20.159Z,21.32
2019-06-27T20:34:48.595Z,21.25
2019-06-27T20:37:17.099Z,21.17
2019-06-27T20:39:45.545Z,21.07
2019-06-27T20:42:13.999Z,20.95
2019-06-27T20:44:42.482Z,20.93
2019-06-27T20:47:10.961Z,20.87
2019-06-27T20:49:39.421Z,20.91
2019-06-27T20:52:07.949Z,20.67
2019-06-27T20:54:36.402Z,20.67
2019-06-27T20:57:04.937Z,20.53
2019-06-27T20:59:33.414Z,20.49
2019-06-27T21:02:01.871Z,20.43
2019-06-27T21:04:30.317Z,20.45
2019-06-27T21:06:58.839Z,20.32
2019-06-27T21:09:27.311Z,20.34
2019-06-27T21:11:55.799Z,20.37
2019-06-27T21:14:24.331Z,20.39
2019-06-27T21:16:52.818Z,20.35
2019-06-27T21:19:21.253Z,20.32
2019-06-27T21:21:50.204Z,20.25
2019-06-27T21:24:18.676Z,20.18
2019-06-27T21:26:47.133Z,20.16
2019-06-27T21:29:17.152Z,20.10
2019-06-27T21:31:45.791Z,19.98
2019-06-27T21:34:14.401Z,19.99
2019-06-27T21:36:42.867Z,20.02
2019-06-27T21:39:11.335Z,20.00
2019-06-27T21:41:39.791Z,19.96
2019-06-27T21:44:08.215Z,19.87
2019-06-27T21:46:36.653Z,19.80
2019-06-27T21:49:05.282Z,19.73
2019-06-27T21:51:33.713Z,19.77
2019-06-27T21:54:02.195Z,19.72
2019-06-27T21:56:30.662Z,19.54
2019-06-27T21:58:59.066Z,19.63
2019-06-27T22:01:27.655Z,19.57
2019-06-27T22:03:56.104Z,19.50
2019-06-27T22:06:24.581Z,19.49
2019-06-27T22:08:53.067Z,19.57
2019-06-27T22:11:21.501Z,19.44
2019-06-27T22:13:49.996Z,19.40
2019-06-27T22:16:18.435Z,19.29
2019-06-27T22:18:46.932Z,19.23
2019-06-27T22:21:15.377Z,19.24
2019-06-27T22:23:43.997Z,19.18
2019-06-27T22:26:12.467Z,19.01
2019-06-27T22:28:40.890Z,18.99
2019-06-27T22:31:09.351Z,18.94
2019-06-27T22:33:37.823Z,18.96
2019-06-27T22:36:06.297Z,18.91
2019-06-27T22:38:52.613Z,18.89
2019-06-27T22:41:38.867Z,18.85
2019-06-27T22:44:25.315Z,18.77
2019-06-27T22:47:11.499Z,18.75
2019-06-27T22:49:39.445Z,18.70
2019-06-27T22:52:15.628Z,18.75
2019-06-27T22:54:45.721Z,18.67
2019-06-27T22:57:14.161Z,18.63
2019-06-27T22:59:42.645Z,18.55
2019-06-27T23:02:11.080Z,18.52
2019-06-27T23:04:39.523Z,18.51
2019-06-27T23:07:07.983Z,18.39
2019-06-27T23:09:36.422Z,18.39
2019-06-27T23:12:04.872Z,18.34
2019-06-27T23:14:33.329Z,18.45
2019-06-27T23:17:01.772Z,18.30
2019-06-27T23:19:30.241Z,18.16
2019-06-27T23:21:58.673Z,18.22
2019-06-27T23:24:27.165Z,18.31
2019-06-27T23:26:55.634Z,18.26
2019-06-27T23:29:24.137Z,18.16
2019-06-27T23:31:52.575Z,18.35
2019-06-27T23:34:21.066Z,18.29
2019-06-27T23:36:49.500Z,18.38
2019-06-27T23:39:18.394Z,18.29
2019-06-27T23:41:46.871Z,18.35
2019-06-27T23:44:16.073Z,18.21
2019-06-27T23:46:44.603Z,18.19
2019-06-27T23:49:13.069Z,18.21
2019-06-27T23:51:41.981Z,18.27
2019-06-27T23:54:10.493Z,18.22
2019-06-27T23:56:38.936Z,18.13
2019-06-27T23:59:07.403Z,18.04
